Lewistown, Montana
Current Conditions -  °F | °C
As of 10:54 AM on Friday 28 Nov 2014 (Local Time) from KLWT Reporting Station
Clear Clear  
Wind Chill: 55°   Ceiling: Unl
Heat Index: 55°   Visibility: 10mi
Dew Point: 31°   Wind: 28mph
Humidity: 40%   Direction: 230°SW
Pressure: 29.51"   Gusts: 38mph
Location:  47.07°N, 109.42°W
Report Text: KLWT 281754Z AUTO 23024G33KT 10SM CLR 13/M01 A2951 RMK AO2 PK WND 24035/1735 SLP977 T01281006 10133 20078 58012
Loading
Personal Weather Stations






























Interactive Weather Map New forecast layout! Learn more

10-Day Weather Forecast

Advertisements
Track Severe Weather on mobile